59.3°F
Current conditions from King Hill
Updated every 5 minutes
 
  Saturday August 30, 2014

Station Historical Data
Daily Summary for February 10, 2012 Units:  Both    English   Metric
« Previous Day
Next Day »
Daily Weekly Monthly Yearly Custom
  High: Low: Average:
Temperature: 38.7 °F /  3.7 °C 23.8 °F /  -4.6 °C 30.7 °F /  -0.7 °C
Dew Point: 20.9 °F /  -6.2 °C 13.1 °F /  -10.5 °C 17.5 °F /  -8.1 °C
Humidity: 70% 46% 58%
Wind Speed: 8.0mph /  12.9km/h - 3.4mph /  5.5km/h
Wind Gust: 18.0mph /  29km/h - -
Wind- - SW
Pressure: 30.01 in /  1016.1 hPa 29.84 in /  1010.4 hPa -
Precipitation: 0.00 in /  0 mm    
Historical Graphs
 
 
Tabular Data for February 10, 2012
Time Temperature Dew Point Pressure Wind Wind Speed Wind Gust Humidity Daily Rainfall
00:04 27.4 °F /  -2.6 °C 13.8 °F /  -10.1 °C 30.01in /  1016.1hPa South 4.0mph /  6.4km/h 6.0mph /  9.7km/h 56% 0.00in /  0mm
00:09 28.1 °F /  -2.2 °C 14.0 °F /  -10 °C 30.01in /  1016.1hPa South 3.0mph /  4.8km/h 8.0mph /  12.9km/h 55% 0.00in /  0mm
00:14 28.2 °F /  -2.1 °C 13.7 °F /  -10.2 °C 30.01in /  1016.1hPa South 2.0mph /  3.2km/h 8.0mph /  12.9km/h 54% 0.00in /  0mm
00:19 28.0 °F /  -2.2 °C 13.9 °F /  -10.1 °C 30.01in /  1016.1hPa South 3.0mph /  4.8km/h 6.0mph /  9.7km/h 55% 0.00in /  0mm
00:24 27.4 °F /  -2.6 °C 13.4 °F /  -10.3 °C 30.01in /  1016.1hPa South 4.0mph /  6.4km/h 6.0mph /  9.7km/h 55% 0.00in /  0mm
00:29 27.5 °F /  -2.5 °C 13.9 °F /  -10.1 °C 30.01in /  1016.1hPa SSW 5.0mph /  8km/h 8.0mph /  12.9km/h 56% 0.00in /  0mm
00:34 28.0 °F /  -2.2 °C 13.9 °F /  -10.1 °C 30.01in /  1016.1hPa SSW 4.0mph /  6.4km/h 8.0mph /  12.9km/h 55% 0.00in /  0mm
00:39 27.8 °F /  -2.3 °C 13.7 °F /  -10.2 °C 30.01in /  1016.1hPa SSW 4.0mph /  6.4km/h 7.0mph /  11.3km/h 55% 0.00in /  0mm
00:44 27.4 °F /  -2.6 °C 13.8 °F /  -10.1 °C 30.01in /  1016.1hPa SSW 2.0mph /  3.2km/h 6.0mph /  9.7km/h 56% 0.00in /  0mm
00:49 27.2 °F /  -2.7 °C 13.6 °F /  -10.2 °C 30.01in /  1016.1hPa SSW 2.0mph /  3.2km/h 5.0mph /  8km/h 56% 0.00in /  0mm
00:54 26.8 °F /  -2.9 °C 13.6 °F /  -10.2 °C 30.01in /  1016.1hPa SSW 1.0mph /  1.6km/h 5.0mph /  8km/h 57% 0.00in /  0mm
00:59 26.4 °F /  -3.1 °C 13.6 °F /  -10.2 °C 30.01in /  1016.1hPa SSW 2.0mph /  3.2km/h 4.0mph /  6.4km/h 58% 0.00in /  0mm
01:04 26.1 °F /  -3.3 °C 13.7 °F /  -10.2 °C 30.01in /  1016.1hPa SSW 3.0mph /  4.8km/h 5.0mph /  8km/h 59% 0.00in /  0mm
01:09 25.6 °F /  -3.6 °C 13.6 °F /  -10.2 °C 30.01in /  1016.1hPa SSW 2.0mph /  3.2km/h 5.0mph /  8km/h 60% 0.00in /  0mm
01:14 25.6 °F /  -3.6 °C 13.6 °F /  -10.2 °C 30.01in /  1016.1hPa SSW 3.0mph /  4.8km/h 6.0mph /  9.7km/h 60% 0.00in /  0mm
01:19 25.7 °F /  -3.5 °C 13.7 °F /  -10.2 °C 30.01in /  1016.1hPa SSW 2.0mph /  3.2km/h 6.0mph /  9.7km/h 60% 0.00in /  0mm
01:24 25.7 °F /  -3.5 °C 13.7 °F /  -10.2 °C 30.01in /  1016.1hPa Calm   5.0mph /  8km/h 60% 0.00in /  0mm
01:29 25.7 °F /  -3.5 °C 13.7 °F /  -10.2 °C 30.01in /  1016.1hPa SSW 1.0mph /  1.6km/h 3.0mph /  4.8km/h 60% 0.00in /  0mm
01:34 25.4 °F /  -3.7 °C 13.4 °F /  -10.3 °C 30.01in /  1016.1hPa SSW 2.0mph /  3.2km/h 3.0mph /  4.8km/h 60% 0.00in /  0mm
01:39 25.1 °F /  -3.8 °C 13.5 °F /  -10.3 °C 30.01in /  1016.1hPa SSW 1.0mph /  1.6km/h 3.0mph /  4.8km/h 61% 0.00in /  0mm
01:44 24.7 °F /  -4.1 °C 13.5 °F /  -10.3 °C 30.01in /  1016.1hPa SSW 2.0mph /  3.2km/h 3.0mph /  4.8km/h 62% 0.00in /  0mm
01:49 24.4 °F /  -4.2 °C 13.2 °F /  -10.4 °C 30.01in /  1016.1hPa SSW 1.0mph /  1.6km/h 3.0mph /  4.8km/h 62% 0.00in /  0mm
01:59 23.9 °F /  -4.5 °C 13.1 °F /  -10.5 °C 30.01in /  1016.1hPa SSW 1.0mph /  1.6km/h 4.0mph /  6.4km/h 63% 0.00in /  0mm
02:04 23.8 °F /  -4.6 °C 13.8 °F /  -10.1 °C 30.01in /  1016.1hPa SSW 3.0mph /  4.8km/h 5.0mph /  8km/h 65% 0.00in /  0mm
02:09 24.3 °F /  -4.3 °C 13.9 °F /  -10.1 °C 30.01in /  1016.1hPa SSW 2.0mph /  3.2km/h 5.0mph /  8km/h 64% 0.00in /  0mm
02:14 24.6 °F /  -4.1 °C 14.2 °F /  -9.9 °C 30.01in /  1016.1hPa SSW 2.0mph /  3.2km/h 5.0mph /  8km/h 64% 0.00in /  0mm
02:19 24.9 °F /  -3.9 °C 14.4 °F /  -9.8 °C 30.01in /  1016.1hPa SSW 3.0mph /  4.8km/h 5.0mph /  8km/h 64% 0.00in /  0mm
02:24 25.1 °F /  -3.8 °C 14.3 °F /  -9.8 °C 30.01in /  1016.1hPa SSW 3.0mph /  4.8km/h 5.0mph /  8km/h 63% 0.00in /  0mm
02:29 25.3 °F /  -3.7 °C 14.5 °F /  -9.7 °C 30.01in /  1016.1hPa SSW 3.0mph /  4.8km/h 7.0mph /  11.3km/h 63% 0.00in /  0mm
02:34 25.3 °F /  -3.7 °C 14.5 °F /  -9.7 °C 30.01in /  1016.1hPa SSW 3.0mph /  4.8km/h 7.0mph /  11.3km/h 63% 0.00in /  0mm
02:39 25.0 °F /  -3.9 °C 14.5 °F /  -9.7 °C 30.01in /  1016.1hPa SSW 3.0mph /  4.8km/h 6.0mph /  9.7km/h 64% 0.00in /  0mm
02:44 25.3 °F /  -3.7 °C 14.8 °F /  -9.6 °C 30.01in /  1016.1hPa SSW 3.0mph /  4.8km/h 6.0mph /  9.7km/h 64% 0.00in /  0mm
02:49 25.5 °F /  -3.6 °C 14.7 °F /  -9.6 °C 30.00in /  1015.8hPa SSW 2.0mph /  3.2km/h 6.0mph /  9.7km/h 63% 0.00in /  0mm
02:54 25.6 °F /  -3.6 °C 14.8 °F /  -9.6 °C 30.01in /  1016.1hPa SSW 3.0mph /  4.8km/h 5.0mph /  8km/h 63% 0.00in /  0mm
02:59 25.7 °F /  -3.5 °C 14.8 °F /  -9.6 °C 30.01in /  1016.1hPa SSW 3.0mph /  4.8km/h 5.0mph /  8km/h 63% 0.00in /  0mm
03:04 26.0 °F /  -3.3 °C 15.1 °F /  -9.4 °C 30.00in /  1015.8hPa SSW 2.0mph /  3.2km/h 5.0mph /  8km/h 63% 0.00in /  0mm
03:09 26.1 °F /  -3.3 °C 15.2 °F /  -9.3 °C 30.00in /  1015.8hPa SSW 3.0mph /  4.8km/h 5.0mph /  8km/h 63% 0.00in /  0mm
03:14 26.2 °F /  -3.2 °C 15.3 °F /  -9.3 °C 30.00in /  1015.8hPa SSW 2.0mph /  3.2km/h 5.0mph /  8km/h 63% 0.00in /  0mm
03:19 26.2 °F /  -3.2 °C 15.0 °F /  -9.4 °C 30.00in /  1015.8hPa SSW 2.0mph /  3.2km/h 5.0mph /  8km/h 62% 0.00in /  0mm
03:24 26.2 °F /  -3.2 °C 15.0 °F /  -9.4 °C 30.00in /  1015.8hPa SSW 2.0mph /  3.2km/h 4.0mph /  6.4km/h 62% 0.00in /  0mm
03:34 26.1 °F /  -3.3 °C 14.9 °F /  -9.5 °C 30.00in /  1015.8hPa SSW 2.0mph /  3.2km/h 5.0mph /  8km/h 62% 0.00in /  0mm
03:39 26.2 °F /  -3.2 °C 15.0 °F /  -9.4 °C 29.99in /  1015.5hPa SSW 3.0mph /  4.8km/h 5.0mph /  8km/h 62% 0.00in /  0mm
03:44 26.2 °F /  -3.2 °C 15.0 °F /  -9.4 °C 29.99in /  1015.5hPa SSW 3.0mph /  4.8km/h 5.0mph /  8km/h 62% 0.00in /  0mm
03:49 26.3 °F /  -3.2 °C 15.0 °F /  -9.4 °C 30.00in /  1015.8hPa SSW 2.0mph /  3.2km/h 5.0mph /  8km/h 62% 0.00in /  0mm
03:54 26.2 °F /  -3.2 °C 15.0 °F /  -9.4 °C 30.00in /  1015.8hPa SSW 2.0mph /  3.2km/h 5.0mph /  8km/h 62% 0.00in /  0mm
03:59 26.1 °F /  -3.3 °C 14.9 °F /  -9.5 °C 30.00in /  1015.8hPa SSW 2.0mph /  3.2km/h 5.0mph /  8km/h 62% 0.00in /  0mm
04:04 26.2 °F /  -3.2 °C 15.0 °F /  -9.4 °C 30.00in /  1015.8hPa SSW 2.0mph /  3.2km/h 5.0mph /  8km/h 62% 0.00in /  0mm
04:09 26.2 °F /  -3.2 °C 15.0 °F /  -9.4 °C 30.00in /  1015.8hPa SSW 3.0mph /  4.8km/h 6.0mph /  9.7km/h 62% 0.00in /  0mm
04:14 26.2 °F /  -3.2 °C 15.0 °F /  -9.4 °C 30.00in /  1015.8hPa SSW 2.0mph /  3.2km/h 6.0mph /  9.7km/h 62% 0.00in /  0mm
04:19 26.2 °F /  -3.2 °C 15.0 °F /  -9.4 °C 30.00in /  1015.8hPa SSW 2.0mph /  3.2km/h 6.0mph /  9.7km/h 62% 0.00in /  0mm
04:24 26.3 °F /  -3.2 °C 14.7 °F /  -9.6 °C 30.00in /  1015.8hPa SSW 3.0mph /  4.8km/h 5.0mph /  8km/h 61% 0.00in /  0mm
04:29 26.5 °F /  -3.1 °C 14.9 °F /  -9.5 °C 30.00in /  1015.8hPa SSW 2.0mph /  3.2km/h 5.0mph /  8km/h 61% 0.00in /  0mm
04:39 26.5 °F /  -3.1 °C 14.5 °F /  -9.7 °C 30.00in /  1015.8hPa SSW 2.0mph /  3.2km/h 5.0mph /  8km/h 60% 0.00in /  0mm
04:44 26.0 °F /  -3.3 °C 14.4 °F /  -9.8 °C 30.00in /  1015.8hPa SSW 3.0mph /  4.8km/h 5.0mph /  8km/h 61% 0.00in /  0mm
04:49 25.9 °F /  -3.4 °C 14.3 °F /  -9.8 °C 29.99in /  1015.5hPa SSW 3.0mph /  4.8km/h 6.0mph /  9.7km/h 61% 0.00in /  0mm
04:54 25.8 °F /  -3.4 °C 14.6 °F /  -9.7 °C 29.99in /  1015.5hPa SSW 3.0mph /  4.8km/h 6.0mph /  9.7km/h 62% 0.00in /  0mm
04:59 25.9 °F /  -3.4 °C 14.7 °F /  -9.6 °C 29.99in /  1015.5hPa South 3.0mph /  4.8km/h 5.0mph /  8km/h 62% 0.00in /  0mm
05:04 26.1 °F /  -3.3 °C 14.5 °F /  -9.7 °C 29.99in /  1015.5hPa South 3.0mph /  4.8km/h 7.0mph /  11.3km/h 61% 0.00in /  0mm
05:09 26.3 °F /  -3.2 °C 14.7 °F /  -9.6 °C 29.99in /  1015.5hPa SSW 2.0mph /  3.2km/h 7.0mph /  11.3km/h 61% 0.00in /  0mm
05:14 26.3 °F /  -3.2 °C 14.7 °F /  -9.6 °C 29.99in /  1015.5hPa South 1.0mph /  1.6km/h 7.0mph /  11.3km/h 61% 0.00in /  0mm
05:19 26.2 °F /  -3.2 °C 14.6 °F /  -9.7 °C 29.99in /  1015.5hPa South 1.0mph /  1.6km/h 6.0mph /  9.7km/h 61% 0.00in /  0mm
05:24 26.0 °F /  -3.3 °C 14.4 °F /  -9.8 °C 29.99in /  1015.5hPa South 3.0mph /  4.8km/h 5.0mph /  8km/h 61% 0.00in /  0mm
05:29 26.0 °F /  -3.3 °C 14.4 °F /  -9.8 °C 29.99in /  1015.5hPa South 1.0mph /  1.6km/h 5.0mph /  8km/h 61% 0.00in /  0mm
05:34 25.9 °F /  -3.4 °C 14.3 °F /  -9.8 °C 29.99in /  1015.5hPa South 3.0mph /  4.8km/h 5.0mph /  8km/h 61% 0.00in /  0mm
05:39 25.8 °F /  -3.4 °C 14.2 °F /  -9.9 °C 29.99in /  1015.5hPa Calm   5.0mph /  8km/h 61% 0.00in /  0mm
05:44 25.7 °F /  -3.5 °C 14.5 °F /  -9.7 °C 29.99in /  1015.5hPa SSW 3.0mph /  4.8km/h 7.0mph /  11.3km/h 62% 0.00in /  0mm
05:49 25.8 °F /  -3.4 °C 14.6 °F /  -9.7 °C 29.99in /  1015.5hPa SSW 3.0mph /  4.8km/h 7.0mph /  11.3km/h 62% 0.00in /  0mm
05:54 25.8 °F /  -3.4 °C 14.6 °F /  -9.7 °C 29.99in /  1015.5hPa SSW 3.0mph /  4.8km/h 6.0mph /  9.7km/h 62% 0.00in /  0mm
05:59 25.8 °F /  -3.4 °C 14.6 °F /  -9.7 °C 29.99in /  1015.5hPa SSW 3.0mph /  4.8km/h 5.0mph /  8km/h 62% 0.00in /  0mm
06:04 25.8 °F /  -3.4 °C 14.6 °F /  -9.7 °C 29.99in /  1015.5hPa SSW 2.0mph /  3.2km/h 6.0mph /  9.7km/h 62% 0.00in /  0mm
06:09 26.1 °F /  -3.3 °C 14.9 °F /  -9.5 °C 29.99in /  1015.5hPa SSW 3.0mph /  4.8km/h 7.0mph /  11.3km/h 62% 0.00in /  0mm
06:14 26.4 °F /  -3.1 °C 14.8 °F /  -9.6 °C 29.99in /  1015.5hPa SSW 3.0mph /  4.8km/h 7.0mph /  11.3km/h 61% 0.00in /  0mm
06:19 26.6 °F /  -3 °C 15.0 °F /  -9.4 °C 29.99in /  1015.5hPa SSW 2.0mph /  3.2km/h 7.0mph /  11.3km/h 61% 0.00in /  0mm
06:24 26.6 °F /  -3 °C 15.0 °F /  -9.4 °C 29.99in /  1015.5hPa South 2.0mph /  3.2km/h 7.0mph /  11.3km/h 61% 0.00in /  0mm
06:29 26.4 °F /  -3.1 °C 14.8 °F /  -9.6 °C 29.99in /  1015.5hPa South 2.0mph /  3.2km/h 7.0mph /  11.3km/h 61% 0.00in /  0mm
06:34 26.2 °F /  -3.2 °C 14.6 °F /  -9.7 °C 29.99in /  1015.5hPa South 2.0mph /  3.2km/h 5.0mph /  8km/h 61% 0.00in /  0mm
06:39 26.0 °F /  -3.3 °C 14.8 °F /  -9.6 °C 29.99in /  1015.5hPa South 3.0mph /  4.8km/h 7.0mph /  11.3km/h 62% 0.00in /  0mm
06:44 25.9 °F /  -3.4 °C 14.7 °F /  -9.6 °C 29.99in /  1015.5hPa South 3.0mph /  4.8km/h 7.0mph /  11.3km/h 62% 0.00in /  0mm
06:49 25.8 °F /  -3.4 °C 14.6 °F /  -9.7 °C 29.99in /  1015.5hPa South 3.0mph /  4.8km/h 7.0mph /  11.3km/h 62% 0.00in /  0mm
06:54 25.7 °F /  -3.5 °C 14.8 °F /  -9.6 °C 29.99in /  1015.5hPa South 2.0mph /  3.2km/h 6.0mph /  9.7km/h 63% 0.00in /  0mm
06:59 25.6 °F /  -3.6 °C 14.8 °F /  -9.6 °C 29.99in /  1015.5hPa South 3.0mph /  4.8km/h 5.0mph /  8km/h 63% 0.00in /  0mm
07:04 25.6 °F /  -3.6 °C 14.8 °F /  -9.6 °C 30.00in /  1015.8hPa South 3.0mph /  4.8km/h 5.0mph /  8km/h 63% 0.00in /  0mm
07:09 25.6 °F /  -3.6 °C 14.8 °F /  -9.6 °C 30.00in /  1015.8hPa South 2.0mph /  3.2km/h 5.0mph /  8km/h 63% 0.00in /  0mm
07:14 25.6 °F /  -3.6 °C 14.8 °F /  -9.6 °C 30.00in /  1015.8hPa South 1.0mph /  1.6km/h 4.0mph /  6.4km/h 63% 0.00in /  0mm
07:19 25.5 °F /  -3.6 °C 14.7 °F /  -9.6 °C 30.00in /  1015.8hPa Calm   3.0mph /  4.8km/h 63% 0.00in /  0mm
07:24 25.4 °F /  -3.7 °C 14.9 °F /  -9.5 °C 30.00in /  1015.8hPa South 1.0mph /  1.6km/h 3.0mph /  4.8km/h 64% 0.00in /  0mm
07:29 25.2 °F /  -3.8 °C 14.4 °F /  -9.8 °C 30.00in /  1015.8hPa Calm   3.0mph /  4.8km/h 63% 0.00in /  0mm
07:34 25.0 °F /  -3.9 °C 14.5 °F /  -9.7 °C 30.00in /  1015.8hPa South 2.0mph /  3.2km/h 3.0mph /  4.8km/h 64% 0.00in /  0mm
07:39 24.9 °F /  -3.9 °C 14.4 °F /  -9.8 °C 30.00in /  1015.8hPa Calm   3.0mph /  4.8km/h 64% 0.00in /  0mm
07:49 25.8 °F /  -3.4 °C 15.3 °F /  -9.3 °C 30.00in /  1015.8hPa South 1.0mph /  1.6km/h 4.0mph /  6.4km/h 64% 0.00in /  0mm
07:54 26.2 °F /  -3.2 °C 15.3 °F /  -9.3 °C 30.00in /  1015.8hPa Calm   4.0mph /  6.4km/h 63% 0.00in /  0mm
07:59 26.2 °F /  -3.2 °C 15.3 °F /  -9.3 °C 30.01in /  1016.1hPa South 1.0mph /  1.6km/h 4.0mph /  6.4km/h 63% 0.00in /  0mm
08:04 26.2 °F /  -3.2 °C 15.3 °F /  -9.3 °C 30.01in /  1016.1hPa South 2.0mph /  3.2km/h 4.0mph /  6.4km/h 63% 0.00in /  0mm
08:09 26.2 °F /  -3.2 °C 15.3 °F /  -9.3 °C 30.01in /  1016.1hPa WSW 1.0mph /  1.6km/h 4.0mph /  6.4km/h 63% 0.00in /  0mm
08:14 26.8 °F /  -2.9 °C 15.9 °F /  -8.9 °C 30.01in /  1016.1hPa SW 2.0mph /  3.2km/h 5.0mph /  8km/h 63% 0.00in /  0mm
08:19 27.2 °F /  -2.7 °C 15.9 °F /  -8.9 °C 30.01in /  1016.1hPa SW 2.0mph /  3.2km/h 8.0mph /  12.9km/h 62% 0.00in /  0mm
08:24 27.9 °F /  -2.3 °C 16.6 °F /  -8.6 °C 30.00in /  1015.8hPa Calm   8.0mph /  12.9km/h 62% 0.00in /  0mm
08:34 28.5 °F /  -1.9 °C 16.8 °F /  -8.4 °C 30.01in /  1016.1hPa SW 4.0mph /  6.4km/h 7.0mph /  11.3km/h 61% 0.00in /  0mm
08:39 28.8 °F /  -1.8 °C 16.7 °F /  -8.5 °C 30.00in /  1015.8hPa SSW 4.0mph /  6.4km/h 7.0mph /  11.3km/h 60% 0.00in /  0mm
08:44 29.1 °F /  -1.6 °C 16.9 °F /  -8.4 °C 30.00in /  1015.8hPa SW 3.0mph /  4.8km/h 7.0mph /  11.3km/h 60% 0.00in /  0mm
08:49 29.4 °F /  -1.4 °C 16.8 °F /  -8.4 °C 30.00in /  1015.8hPa SSW 3.0mph /  4.8km/h 7.0mph /  11.3km/h 59% 0.00in /  0mm
08:54 29.6 °F /  -1.3 °C 17.0 °F /  -8.3 °C 30.00in /  1015.8hPa SSW 3.0mph /  4.8km/h 7.0mph /  11.3km/h 59% 0.00in /  0mm
08:59 30.1 °F /  -1.1 °C 17.5 °F /  -8.1 °C 30.00in /  1015.8hPa SSW 5.0mph /  8km/h 9.0mph /  14.5km/h 59% 0.00in /  0mm
09:04 30.8 °F /  -0.7 °C 17.8 °F /  -7.9 °C 30.00in /  1015.8hPa SW 6.0mph /  9.7km/h 11.0mph /  17.7km/h 58% 0.00in /  0mm
09:09 31.2 °F /  -0.4 °C 17.7 °F /  -7.9 °C 30.00in /  1015.8hPa SSW 6.0mph /  9.7km/h 11.0mph /  17.7km/h 57% 0.00in /  0mm
09:14 31.4 °F /  -0.3 °C 17.9 °F /  -7.8 °C 30.00in /  1015.8hPa SSW 4.0mph /  6.4km/h 11.0mph /  17.7km/h 57% 0.00in /  0mm
09:19 31.7 °F /  -0.2 °C 17.8 °F /  -7.9 °C 30.00in /  1015.8hPa SSW 5.0mph /  8km/h 9.0mph /  14.5km/h 56% 0.00in /  0mm
09:24 32.1 °F /  0.1 °C 18.6 °F /  -7.4 °C 30.00in /  1015.8hPa SW 3.0mph /  4.8km/h 8.0mph /  12.9km/h 57% 0.00in /  0mm
09:29 32.5 °F /  0.3 °C 18.5 °F /  -7.5 °C 30.00in /  1015.8hPa SSW 3.0mph /  4.8km/h 7.0mph /  11.3km/h 56% 0.00in /  0mm
09:34 32.6 °F /  0.3 °C 18.6 °F /  -7.4 °C 30.00in /  1015.8hPa SW 5.0mph /  8km/h 10.0mph /  16.1km/h 56% 0.00in /  0mm
09:39 32.6 °F /  0.3 °C 18.6 °F /  -7.4 °C 30.00in /  1015.8hPa WSW 4.0mph /  6.4km/h 10.0mph /  16.1km/h 56% 0.00in /  0mm
09:50 32.9 °F /  0.5 °C 18.9 °F /  -7.3 °C 29.99in /  1015.5hPa SW 3.0mph /  4.8km/h 10.0mph /  16.1km/h 56% 0.00in /  0mm
09:59 33.2 °F /  0.7 °C 18.8 °F /  -7.3 °C 29.99in /  1015.5hPa West 2.0mph /  3.2km/h 8.0mph /  12.9km/h 55% 0.00in /  0mm
10:04 33.5 °F /  0.8 °C 19.1 °F /  -7.2 °C 29.99in /  1015.5hPa SSW 2.0mph /  3.2km/h 6.0mph /  9.7km/h 55% 0.00in /  0mm
10:09 34.0 °F /  1.1 °C 19.1 °F /  -7.2 °C 29.99in /  1015.5hPa SSW 3.0mph /  4.8km/h 7.0mph /  11.3km/h 54% 0.00in /  0mm
10:14 34.4 °F /  1.3 °C 19.9 °F /  -6.7 °C 29.99in /  1015.5hPa SSW 3.0mph /  4.8km/h 7.0mph /  11.3km/h 55% 0.00in /  0mm
10:19 34.7 °F /  1.5 °C 19.8 °F /  -6.8 °C 29.98in /  1015.1hPa WSW 2.0mph /  3.2km/h 6.0mph /  9.7km/h 54% 0.00in /  0mm
10:24 34.2 °F /  1.2 °C 19.3 °F /  -7.1 °C 29.99in /  1015.5hPa SW 6.0mph /  9.7km/h 10.0mph /  16.1km/h 54% 0.00in /  0mm
10:29 34.4 °F /  1.3 °C 19.9 °F /  -6.7 °C 29.98in /  1015.1hPa SSW 5.0mph /  8km/h 11.0mph /  17.7km/h 55% 0.00in /  0mm
10:34 34.3 °F /  1.3 °C 19.8 °F /  -6.8 °C 29.98in /  1015.1hPa SSW 6.0mph /  9.7km/h 11.0mph /  17.7km/h 55% 0.00in /  0mm
10:39 34.3 °F /  1.3 °C 19.8 °F /  -6.8 °C 29.98in /  1015.1hPa SSW 3.0mph /  4.8km/h 10.0mph /  16.1km/h 55% 0.00in /  0mm
10:44 34.4 °F /  1.3 °C 19.9 °F /  -6.7 °C 29.98in /  1015.1hPa SSW 4.0mph /  6.4km/h 10.0mph /  16.1km/h 55% 0.00in /  0mm
10:49 34.7 °F /  1.5 °C 20.2 °F /  -6.6 °C 29.98in /  1015.1hPa SSW 5.0mph /  8km/h 10.0mph /  16.1km/h 55% 0.00in /  0mm
10:54 34.6 °F /  1.4 °C 19.7 °F /  -6.8 °C 29.98in /  1015.1hPa South 6.0mph /  9.7km/h 18.0mph /  29km/h 54% 0.00in /  0mm
10:59 34.5 °F /  1.4 °C 19.6 °F /  -6.9 °C 29.98in /  1015.1hPa SW 8.0mph /  12.9km/h 18.0mph /  29km/h 54% 0.00in /  0mm
11:04 34.6 °F /  1.4 °C 20.1 °F /  -6.6 °C 29.97in /  1014.8hPa SSW 6.0mph /  9.7km/h 16.0mph /  25.7km/h 55% 0.00in /  0mm
11:14 34.7 °F /  1.5 °C 20.6 °F /  -6.3 °C 29.96in /  1014.4hPa WSW 7.0mph /  11.3km/h 17.0mph /  27.4km/h 56% 0.00in /  0mm
11:19 34.8 °F /  1.6 °C 20.3 °F /  -6.5 °C 29.96in /  1014.4hPa SW 4.0mph /  6.4km/h 17.0mph /  27.4km/h 55% 0.00in /  0mm
11:24 35.2 °F /  1.8 °C 20.6 °F /  -6.3 °C 29.96in /  1014.4hPa SW 5.0mph /  8km/h 13.0mph /  20.9km/h 55% 0.00in /  0mm
11:29 35.3 °F /  1.8 °C 20.3 °F /  -6.5 °C 29.96in /  1014.4hPa WSW 6.0mph /  9.7km/h 14.0mph /  22.5km/h 54% 0.00in /  0mm
11:39 35.7 °F /  2.1 °C 20.7 °F /  -6.3 °C 29.94in /  1013.8hPa WSW 5.0mph /  8km/h 11.0mph /  17.7km/h 54% 0.00in /  0mm
11:44 35.2 °F /  1.8 °C 19.8 °F /  -6.8 °C 29.94in /  1013.8hPa SW 7.0mph /  11.3km/h 14.0mph /  22.5km/h 53% 0.00in /  0mm
11:49 35.7 °F /  2.1 °C 20.7 °F /  -6.3 °C 29.94in /  1013.8hPa SW 3.0mph /  4.8km/h 14.0mph /  22.5km/h 54% 0.00in /  0mm
11:54 36.1 °F /  2.3 °C 20.2 °F /  -6.6 °C 29.94in /  1013.8hPa West 4.0mph /  6.4km/h 10.0mph /  16.1km/h 52% 0.00in /  0mm
11:59 35.9 °F /  2.2 °C 19.1 °F /  -7.2 °C 29.94in /  1013.8hPa West 5.0mph /  8km/h 11.0mph /  17.7km/h 50% 0.00in /  0mm
12:04 35.6 °F /  2 °C 19.3 °F /  -7.1 °C 29.93in /  1013.4hPa SSW 7.0mph /  11.3km/h 11.0mph /  17.7km/h 51% 0.00in /  0mm
12:09 35.8 °F /  2.1 °C 19.4 °F /  -7 °C 29.93in /  1013.4hPa SSW 4.0mph /  6.4km/h 11.0mph /  17.7km/h 51% 0.00in /  0mm
12:14 36.4 °F /  2.4 °C 20.0 °F /  -6.7 °C 29.93in /  1013.4hPa SW 4.0mph /  6.4km/h 10.0mph /  16.1km/h 51% 0.00in /  0mm
12:19 36.7 °F /  2.6 °C 19.3 °F /  -7.1 °C 29.93in /  1013.4hPa SSW 6.0mph /  9.7km/h 10.0mph /  16.1km/h 49% 0.00in /  0mm
12:24 36.4 °F /  2.4 °C 19.1 °F /  -7.2 °C 29.92in /  1013.1hPa SSW 5.0mph /  8km/h 12.0mph /  19.3km/h 49% 0.00in /  0mm
12:29 36.4 °F /  2.4 °C 19.1 °F /  -7.2 °C 29.92in /  1013.1hPa WSW 4.0mph /  6.4km/h 12.0mph /  19.3km/h 49% 0.00in /  0mm
12:34 36.7 °F /  2.6 °C 19.3 °F /  -7.1 °C 29.92in /  1013.1hPa WSW 5.0mph /  8km/h 8.0mph /  12.9km/h 49% 0.00in /  0mm
12:39 36.7 °F /  2.6 °C 18.4 °F /  -7.6 °C 29.92in /  1013.1hPa West 5.0mph /  8km/h 10.0mph /  16.1km/h 47% 0.00in /  0mm
12:44 36.8 °F /  2.7 °C 19.4 °F /  -7 °C 29.91in /  1012.8hPa SSW 5.0mph /  8km/h 10.0mph /  16.1km/h 49% 0.00in /  0mm
12:49 37.0 °F /  2.8 °C 20.1 °F /  -6.6 °C 29.91in /  1012.8hPa SW 7.0mph /  11.3km/h 10.0mph /  16.1km/h 50% 0.00in /  0mm
12:54 37.1 °F /  2.8 °C 20.2 °F /  -6.6 °C 29.91in /  1012.8hPa SSW 4.0mph /  6.4km/h 10.0mph /  16.1km/h 50% 0.00in /  0mm
12:59 37.3 °F /  2.9 °C 20.8 °F /  -6.2 °C 29.91in /  1012.8hPa WSW 5.0mph /  8km/h 10.0mph /  16.1km/h 51% 0.00in /  0mm
13:04 37.3 °F /  2.9 °C 20.4 °F /  -6.4 °C 29.91in /  1012.8hPa WSW 6.0mph /  9.7km/h 9.0mph /  14.5km/h 50% 0.00in /  0mm
13:09 37.7 °F /  3.2 °C 20.3 °F /  -6.5 °C 29.90in /  1012.4hPa SW 5.0mph /  8km/h 9.0mph /  14.5km/h 49% 0.00in /  0mm
13:14 38.0 °F /  3.3 °C 20.5 °F /  -6.4 °C 29.90in /  1012.4hPa WSW 5.0mph /  8km/h 12.0mph /  19.3km/h 49% 0.00in /  0mm
13:19 37.6 °F /  3.1 °C 20.6 °F /  -6.3 °C 29.90in /  1012.4hPa SW 5.0mph /  8km/h 12.0mph /  19.3km/h 50% 0.00in /  0mm
13:24 37.7 °F /  3.2 °C 20.7 °F /  -6.3 °C 29.90in /  1012.4hPa WNW 7.0mph /  11.3km/h 12.0mph /  19.3km/h 50% 0.00in /  0mm
13:29 37.8 °F /  3.2 °C 20.8 °F /  -6.2 °C 29.90in /  1012.4hPa WSW 3.0mph /  4.8km/h 12.0mph /  19.3km/h 50% 0.00in /  0mm
13:39 38.0 °F /  3.3 °C 19.6 °F /  -6.9 °C 29.90in /  1012.4hPa SSW 5.0mph /  8km/h 12.0mph /  19.3km/h 47% 0.00in /  0mm
13:44 38.1 °F /  3.4 °C 20.1 °F /  -6.6 °C 29.90in /  1012.4hPa WSW 6.0mph /  9.7km/h 12.0mph /  19.3km/h 48% 0.00in /  0mm
13:49 38.2 °F /  3.4 °C 20.7 °F /  -6.3 °C 29.90in /  1012.4hPa West 4.0mph /  6.4km/h 10.0mph /  16.1km/h 49% 0.00in /  0mm
13:54 38.3 °F /  3.5 °C 19.8 °F /  -6.8 °C 29.90in /  1012.4hPa SW 5.0mph /  8km/h 9.0mph /  14.5km/h 47% 0.00in /  0mm
13:59 38.3 °F /  3.5 °C 19.8 °F /  -6.8 °C 29.90in /  1012.4hPa WSW 7.0mph /  11.3km/h 12.0mph /  19.3km/h 47% 0.00in /  0mm
14:04 38.2 °F /  3.4 °C 19.7 °F /  -6.8 °C 29.90in /  1012.4hPa SW 4.0mph /  6.4km/h 12.0mph /  19.3km/h 47% 0.00in /  0mm
14:09 38.5 °F /  3.6 °C 20.5 °F /  -6.4 °C 29.90in /  1012.4hPa WSW 4.0mph /  6.4km/h 12.0mph /  19.3km/h 48% 0.00in /  0mm
14:14 38.7 °F /  3.7 °C 19.7 °F /  -6.8 °C 29.90in /  1012.4hPa SW 7.0mph /  11.3km/h 12.0mph /  19.3km/h 46% 0.00in /  0mm
14:19 38.4 °F /  3.6 °C 20.4 °F /  -6.4 °C 29.90in /  1012.4hPa SW 8.0mph /  12.9km/h 13.0mph /  20.9km/h 48% 0.00in /  0mm
14:24 38.3 °F /  3.5 °C 20.3 °F /  -6.5 °C 29.90in /  1012.4hPa SW 6.0mph /  9.7km/h 13.0mph /  20.9km/h 48% 0.00in /  0mm
14:29 37.5 °F /  3.1 °C 19.6 °F /  -6.9 °C 29.90in /  1012.4hPa SW 5.0mph /  8km/h 15.0mph /  24.1km/h 48% 0.00in /  0mm
14:39 37.5 °F /  3.1 °C 20.1 °F /  -6.6 °C 29.90in /  1012.4hPa SSW 6.0mph /  9.7km/h 13.0mph /  20.9km/h 49% 0.00in /  0mm
14:44 37.4 °F /  3 °C 19.0 °F /  -7.2 °C 29.89in /  1012.1hPa SW 4.0mph /  6.4km/h 13.0mph /  20.9km/h 47% 0.00in /  0mm
14:49 37.5 °F /  3.1 °C 19.6 °F /  -6.9 °C 29.89in /  1012.1hPa SSW 5.0mph /  8km/h 13.0mph /  20.9km/h 48% 0.00in /  0mm
14:54 37.4 °F /  3 °C 19.5 °F /  -6.9 °C 29.90in /  1012.4hPa SW 6.0mph /  9.7km/h 12.0mph /  19.3km/h 48% 0.00in /  0mm
14:59 37.3 °F /  2.9 °C 19.9 °F /  -6.7 °C 29.90in /  1012.4hPa SW 3.0mph /  4.8km/h 10.0mph /  16.1km/h 49% 0.00in /  0mm
15:04 37.2 °F /  2.9 °C 19.3 °F /  -7.1 °C 29.90in /  1012.4hPa SSW 5.0mph /  8km/h 9.0mph /  14.5km/h 48% 0.00in /  0mm
15:09 37.2 °F /  2.9 °C 19.3 °F /  -7.1 °C 29.89in /  1012.1hPa SW 6.0mph /  9.7km/h 9.0mph /  14.5km/h 48% 0.00in /  0mm
15:14 37.1 °F /  2.8 °C 19.2 °F /  -7.1 °C 29.89in /  1012.1hPa SSW 4.0mph /  6.4km/h 10.0mph /  16.1km/h 48% 0.00in /  0mm
15:20 37.0 °F /  2.8 °C 19.6 °F /  -6.9 °C 29.89in /  1012.1hPa SSW 3.0mph /  4.8km/h 10.0mph /  16.1km/h 49% 0.00in /  0mm
15:29 37.0 °F /  2.8 °C 19.1 °F /  -7.2 °C 29.89in /  1012.1hPa SW 4.0mph /  6.4km/h 7.0mph /  11.3km/h 48% 0.00in /  0mm
15:34 36.9 °F /  2.7 °C 19.0 °F /  -7.2 °C 29.89in /  1012.1hPa SW 2.0mph /  3.2km/h 7.0mph /  11.3km/h 48% 0.00in /  0mm
15:39 36.9 °F /  2.7 °C 19.5 °F /  -6.9 °C 29.89in /  1012.1hPa WSW 2.0mph /  3.2km/h 7.0mph /  11.3km/h 49% 0.00in /  0mm
15:44 36.8 °F /  2.7 °C 18.9 °F /  -7.3 °C 29.89in /  1012.1hPa WSW 1.0mph /  1.6km/h 6.0mph /  9.7km/h 48% 0.00in /  0mm
15:49 36.8 °F /  2.7 °C 19.4 °F /  -7 °C 29.89in /  1012.1hPa West 1.0mph /  1.6km/h 6.0mph /  9.7km/h 49% 0.00in /  0mm
15:54 36.6 °F /  2.6 °C 18.8 °F /  -7.3 °C 29.89in /  1012.1hPa WSW 2.0mph /  3.2km/h 7.0mph /  11.3km/h 48% 0.00in /  0mm
15:59 36.6 °F /  2.6 °C 18.8 °F /  -7.3 °C 29.88in /  1011.7hPa SW 3.0mph /  4.8km/h 7.0mph /  11.3km/h 48% 0.00in /  0mm
16:04 36.6 °F /  2.6 °C 18.8 °F /  -7.3 °C 29.88in /  1011.7hPa SSW 3.0mph /  4.8km/h 6.0mph /  9.7km/h 48% 0.00in /  0mm
16:09 36.6 °F /  2.6 °C 19.2 °F /  -7.1 °C 29.88in /  1011.7hPa Calm   5.0mph /  8km/h 49% 0.00in /  0mm
16:14 36.5 °F /  2.5 °C 19.1 °F /  -7.2 °C 29.88in /  1011.7hPa Calm   4.0mph /  6.4km/h 49% 0.00in /  0mm
16:19 36.4 °F /  2.4 °C 19.1 °F /  -7.2 °C 29.88in /  1011.7hPa SSW 3.0mph /  4.8km/h 5.0mph /  8km/h 49% 0.00in /  0mm
16:24 36.2 °F /  2.3 °C 19.3 °F /  -7.1 °C 29.88in /  1011.7hPa SW 1.0mph /  1.6km/h 6.0mph /  9.7km/h 50% 0.00in /  0mm
16:29 36.1 °F /  2.3 °C 19.3 °F /  -7.1 °C 29.88in /  1011.7hPa WSW 3.0mph /  4.8km/h 6.0mph /  9.7km/h 50% 0.00in /  0mm
16:34 35.9 °F /  2.2 °C 19.1 °F /  -7.2 °C 29.88in /  1011.7hPa West 5.0mph /  8km/h 9.0mph /  14.5km/h 50% 0.00in /  0mm
16:39 35.8 °F /  2.1 °C 19.4 °F /  -7 °C 29.88in /  1011.7hPa West 7.0mph /  11.3km/h 10.0mph /  16.1km/h 51% 0.00in /  0mm
16:44 35.5 °F /  1.9 °C 19.6 °F /  -6.9 °C 29.88in /  1011.7hPa WNW 6.0mph /  9.7km/h 12.0mph /  19.3km/h 52% 0.00in /  0mm
16:49 35.2 °F /  1.8 °C 18.9 °F /  -7.3 °C 29.88in /  1011.7hPa WNW 6.0mph /  9.7km/h 12.0mph /  19.3km/h 51% 0.00in /  0mm
16:54 34.8 °F /  1.6 °C 19.0 °F /  -7.2 °C 29.88in /  1011.7hPa WNW 6.0mph /  9.7km/h 10.0mph /  16.1km/h 52% 0.00in /  0mm
16:59 34.6 °F /  1.4 °C 18.8 °F /  -7.3 °C 29.88in /  1011.7hPa WNW 5.0mph /  8km/h 8.0mph /  12.9km/h 52% 0.00in /  0mm
17:04 34.4 °F /  1.3 °C 19.0 °F /  -7.2 °C 29.89in /  1012.1hPa WNW 3.0mph /  4.8km/h 8.0mph /  12.9km/h 53% 0.00in /  0mm
17:09 34.3 °F /  1.3 °C 18.9 °F /  -7.3 °C 29.89in /  1012.1hPa WNW 5.0mph /  8km/h 8.0mph /  12.9km/h 53% 0.00in /  0mm
17:14 34.2 °F /  1.2 °C 18.8 °F /  -7.3 °C 29.89in /  1012.1hPa WNW 4.0mph /  6.4km/h 8.0mph /  12.9km/h 53% 0.00in /  0mm
17:19 34.0 °F /  1.1 °C 19.1 °F /  -7.2 °C 29.89in /  1012.1hPa WNW 3.0mph /  4.8km/h 10.0mph /  16.1km/h 54% 0.00in /  0mm
17:24 33.9 °F /  1.1 °C 19.0 °F /  -7.2 °C 29.89in /  1012.1hPa WNW 5.0mph /  8km/h 10.0mph /  16.1km/h 54% 0.00in /  0mm
17:30 33.8 °F /  1 °C 18.9 °F /  -7.3 °C 29.89in /  1012.1hPa WNW 5.0mph /  8km/h 9.0mph /  14.5km/h 54% 0.00in /  0mm
17:39 33.3 °F /  0.7 °C 19.3 °F /  -7.1 °C 29.90in /  1012.4hPa West 4.0mph /  6.4km/h 6.0mph /  9.7km/h 56% 0.00in /  0mm
17:44 33.2 °F /  0.7 °C 19.2 °F /  -7.1 °C 29.90in /  1012.4hPa West 3.0mph /  4.8km/h 6.0mph /  9.7km/h 56% 0.00in /  0mm
17:49 33.1 °F /  0.6 °C 19.1 °F /  -7.2 °C 29.90in /  1012.4hPa West 3.0mph /  4.8km/h 7.0mph /  11.3km/h 56% 0.00in /  0mm
17:59 33.0 °F /  0.6 °C 18.6 °F /  -7.4 °C 29.90in /  1012.4hPa NW 4.0mph /  6.4km/h 7.0mph /  11.3km/h 55% 0.00in /  0mm
18:04 33.0 °F /  0.6 °C 19.0 °F /  -7.2 °C 29.91in /  1012.8hPa WNW 3.0mph /  4.8km/h 7.0mph /  11.3km/h 56% 0.00in /  0mm
18:09 32.9 °F /  0.5 °C 19.3 °F /  -7.1 °C 29.91in /  1012.8hPa NW 3.0mph /  4.8km/h 7.0mph /  11.3km/h 57% 0.00in /  0mm
18:14 32.7 °F /  0.4 °C 19.1 °F /  -7.2 °C 29.91in /  1012.8hPa WNW 3.0mph /  4.8km/h 7.0mph /  11.3km/h 57% 0.00in /  0mm
18:19 32.6 °F /  0.3 °C 19.1 °F /  -7.2 °C 29.90in /  1012.4hPa NW 4.0mph /  6.4km/h 7.0mph /  11.3km/h 57% 0.00in /  0mm
18:24 32.6 °F /  0.3 °C 19.5 °F /  -6.9 °C 29.91in /  1012.8hPa NW 3.0mph /  4.8km/h 7.0mph /  11.3km/h 58% 0.00in /  0mm
18:34 32.5 °F /  0.3 °C 19.0 °F /  -7.2 °C 29.90in /  1012.4hPa WNW 2.0mph /  3.2km/h 7.0mph /  11.3km/h 57% 0.00in /  0mm
18:39 32.4 °F /  0.2 °C 18.9 °F /  -7.3 °C 29.91in /  1012.8hPa WNW 3.0mph /  4.8km/h 4.0mph /  6.4km/h 57% 0.00in /  0mm
18:44 32.3 °F /  0.2 °C 18.8 °F /  -7.3 °C 29.90in /  1012.4hPa WNW 2.0mph /  3.2km/h 5.0mph /  8km/h 57% 0.00in /  0mm
18:49 32.3 °F /  0.2 °C 18.8 °F /  -7.3 °C 29.91in /  1012.8hPa WNW 2.0mph /  3.2km/h 5.0mph /  8km/h 57% 0.00in /  0mm
18:54 32.2 °F /  0.1 °C 18.7 °F /  -7.4 °C 29.91in /  1012.8hPa WNW 1.0mph /  1.6km/h 4.0mph /  6.4km/h 57% 0.00in /  0mm
18:59 32.2 °F /  0.1 °C 18.3 °F /  -7.6 °C 29.90in /  1012.4hPa WNW 2.0mph /  3.2km/h 4.0mph /  6.4km/h 56% 0.00in /  0mm
19:04 32.2 °F /  0.1 °C 18.7 °F /  -7.4 °C 29.90in /  1012.4hPa Calm   4.0mph /  6.4km/h 57% 0.00in /  0mm
19:09 32.1 °F /  0.1 °C 18.6 °F /  -7.4 °C 29.90in /  1012.4hPa Calm   4.0mph /  6.4km/h 57% 0.00in /  0mm
19:14 32.0 °F /  0 °C 18.5 °F /  -7.5 °C 29.90in /  1012.4hPa Calm   4.0mph /  6.4km/h 57% 0.00in /  0mm
19:19 32.0 °F /  0 °C 18.1 °F /  -7.7 °C 29.90in /  1012.4hPa WNW 1.0mph /  1.6km/h 4.0mph /  6.4km/h 56% 0.00in /  0mm
19:24 32.0 °F /  0 °C 18.5 °F /  -7.5 °C 29.90in /  1012.4hPa Calm   3.0mph /  4.8km/h 57% 0.00in /  0mm
19:29 31.9 °F /  -0.1 °C 18.8 °F /  -7.3 °C 29.90in /  1012.4hPa Calm   3.0mph /  4.8km/h 58% 0.00in /  0mm
19:34 31.9 °F /  -0.1 °C 18.8 °F /  -7.3 °C 29.90in /  1012.4hPa Calm   4.0mph /  6.4km/h 58% 0.00in /  0mm
19:39 31.8 °F /  -0.1 °C 18.7 °F /  -7.4 °C 29.90in /  1012.4hPa WNW 2.0mph /  3.2km/h 5.0mph /  8km/h 58% 0.00in /  0mm
19:44 31.8 °F /  -0.1 °C 18.7 °F /  -7.4 °C 29.90in /  1012.4hPa NW 1.0mph /  1.6km/h 6.0mph /  9.7km/h 58% 0.00in /  0mm
19:49 31.8 °F /  -0.1 °C 18.7 °F /  -7.4 °C 29.90in /  1012.4hPa NW 1.0mph /  1.6km/h 6.0mph /  9.7km/h 58% 0.00in /  0mm
19:54 31.7 °F /  -0.2 °C 18.6 °F /  -7.4 °C 29.90in /  1012.4hPa NW 1.0mph /  1.6km/h 4.0mph /  6.4km/h 58% 0.00in /  0mm
19:59 31.7 °F /  -0.2 °C 18.6 °F /  -7.4 °C 29.90in /  1012.4hPa NW 3.0mph /  4.8km/h 5.0mph /  8km/h 58% 0.00in /  0mm
20:04 31.7 °F /  -0.2 °C 18.6 °F /  -7.4 °C 29.90in /  1012.4hPa NW 2.0mph /  3.2km/h 5.0mph /  8km/h 58% 0.00in /  0mm
20:09 31.6 °F /  -0.2 °C 18.5 °F /  -7.5 °C 29.90in /  1012.4hPa NW 1.0mph /  1.6km/h 5.0mph /  8km/h 58% 0.00in /  0mm
20:14 31.4 °F /  -0.3 °C 18.3 °F /  -7.6 °C 29.90in /  1012.4hPa Calm   5.0mph /  8km/h 58% 0.00in /  0mm
20:19 31.3 °F /  -0.4 °C 18.6 °F /  -7.4 °C 29.90in /  1012.4hPa Calm   3.0mph /  4.8km/h 59% 0.00in /  0mm
20:24 31.2 °F /  -0.4 °C 18.5 °F /  -7.5 °C 29.89in /  1012.1hPa Calm   1.0mph /  1.6km/h 59% 0.00in /  0mm
20:29 31.0 °F /  -0.6 °C 18.7 °F /  -7.4 °C 29.89in /  1012.1hPa Calm     60% 0.00in /  0mm
20:34 30.8 °F /  -0.7 °C 20.4 °F /  -6.4 °C 29.89in /  1012.1hPa Calm     65% 0.00in /  0mm
20:40 30.6 °F /  -0.8 °C 20.6 °F /  -6.3 °C 29.89in /  1012.1hPa Calm     66% 0.00in /  0mm
20:49 30.3 °F /  -0.9 °C 19.6 °F /  -6.9 °C 29.89in /  1012.1hPa Calm     64% 0.00in /  0mm
20:59 30.1 °F /  -1.1 °C 19.4 °F /  -7 °C 29.89in /  1012.1hPa Calm     64% 0.00in /  0mm
21:04 30.0 °F /  -1.1 °C 20.4 °F /  -6.4 °C 29.89in /  1012.1hPa Calm     67% 0.00in /  0mm
21:09 29.9 °F /  -1.2 °C 20.6 °F /  -6.3 °C 29.89in /  1012.1hPa Calm     68% 0.00in /  0mm
21:14 29.9 °F /  -1.2 °C 20.6 °F /  -6.3 °C 29.88in /  1011.7hPa Calm     68% 0.00in /  0mm
21:19 29.9 °F /  -1.2 °C 20.3 °F /  -6.5 °C 29.88in /  1011.7hPa Calm     67% 0.00in /  0mm
21:24 30.0 °F /  -1.1 °C 20.4 °F /  -6.4 °C 29.88in /  1011.7hPa Calm     67% 0.00in /  0mm
21:29 29.8 °F /  -1.2 °C 20.9 °F /  -6.2 °C 29.87in /  1011.4hPa Calm     69% 0.00in /  0mm
21:34 29.6 °F /  -1.3 °C 20.3 °F /  -6.5 °C 29.88in /  1011.7hPa Calm     68% 0.00in /  0mm
21:40 29.4 °F /  -1.4 °C 20.1 °F /  -6.6 °C 29.87in /  1011.4hPa Calm     68% 0.00in /  0mm
21:49 29.3 °F /  -1.5 °C 20.1 °F /  -6.6 °C 29.87in /  1011.4hPa NW 1.0mph /  1.6km/h 2.0mph /  3.2km/h 68% 0.00in /  0mm
21:54 29.2 °F /  -1.6 °C 20.3 °F /  -6.5 °C 29.87in /  1011.4hPa Calm   2.0mph /  3.2km/h 69% 0.00in /  0mm
21:59 29.1 °F /  -1.6 °C 20.5 °F /  -6.4 °C 29.86in /  1011.1hPa Calm   2.0mph /  3.2km/h 70% 0.00in /  0mm
22:04 29.0 °F /  -1.7 °C 20.1 °F /  -6.6 °C 29.86in /  1011.1hPa Calm     69% 0.00in /  0mm
22:09 28.9 °F /  -1.7 °C 20.0 °F /  -6.7 °C 29.86in /  1011.1hPa Calm     69% 0.00in /  0mm
22:14 28.9 °F /  -1.7 °C 20.3 °F /  -6.5 °C 29.86in /  1011.1hPa Calm     70% 0.00in /  0mm
22:19 28.8 °F /  -1.8 °C 19.9 °F /  -6.7 °C 29.86in /  1011.1hPa Calm     69% 0.00in /  0mm
22:24 28.9 °F /  -1.7 °C 19.7 °F /  -6.8 °C 29.86in /  1011.1hPa Calm     68% 0.00in /  0mm
22:29 29.0 °F /  -1.7 °C 20.1 °F /  -6.6 °C 29.86in /  1011.1hPa Calm     69% 0.00in /  0mm
22:34 28.9 °F /  -1.7 °C 19.7 °F /  -6.8 °C 29.86in /  1011.1hPa Calm     68% 0.00in /  0mm
22:40 28.9 °F /  -1.7 °C 19.3 °F /  -7.1 °C 29.86in /  1011.1hPa Calm     67% 0.00in /  0mm
22:49 28.8 °F /  -1.8 °C 18.9 °F /  -7.3 °C 29.85in /  1010.7hPa Calm   2.0mph /  3.2km/h 66% 0.00in /  0mm
22:59 28.5 °F /  -1.9 °C 18.6 °F /  -7.4 °C 29.85in /  1010.7hPa NW 1.0mph /  1.6km/h 2.0mph /  3.2km/h 66% 0.00in /  0mm
23:04 28.4 °F /  -2 °C 18.5 °F /  -7.5 °C 29.85in /  1010.7hPa Calm   2.0mph /  3.2km/h 66% 0.00in /  0mm
23:09 28.3 °F /  -2.1 °C 18.4 °F /  -7.6 °C 29.84in /  1010.4hPa Calm   3.0mph /  4.8km/h 66% 0.00in /  0mm
23:14 28.3 °F /  -2.1 °C 18.4 °F /  -7.6 °C 29.84in /  1010.4hPa Calm   3.0mph /  4.8km/h 66% 0.00in /  0mm
23:19 28.3 °F /  -2.1 °C 18.0 °F /  -7.8 °C 29.84in /  1010.4hPa Calm   2.0mph /  3.2km/h 65% 0.00in /  0mm
23:24 28.4 °F /  -2 °C 18.1 °F /  -7.7 °C 29.84in /  1010.4hPa Calm   2.0mph /  3.2km/h 65% 0.00in /  0mm
23:29 28.3 °F /  -2.1 °C 18.0 °F /  -7.8 °C 29.84in /  1010.4hPa Calm   1.0mph /  1.6km/h 65% 0.00in /  0mm
23:34 28.3 °F /  -2.1 °C 18.0 °F /  -7.8 °C 29.84in /  1010.4hPa Calm   1.0mph /  1.6km/h 65% 0.00in /  0mm
23:39 28.4 °F /  -2 °C 18.1 °F /  -7.7 °C 29.84in /  1010.4hPa Calm   1.0mph /  1.6km/h 65% 0.00in /  0mm
23:44 28.4 °F /  -2 °C 17.8 °F /  -7.9 °C 29.84in /  1010.4hPa Calm     64% 0.00in /  0mm
23:49 28.7 °F /  -1.8 °C 18.1 °F /  -7.7 °C 29.84in /  1010.4hPa Calm     64% 0.00in /  0mm
23:54 28.9 °F /  -1.7 °C 17.9 °F /  -7.8 °C 29.84in /  1010.4hPa Calm   1.0mph /  1.6km/h 63% 0.00in /  0mm
23:59 28.9 °F /  -1.7 °C 17.9 °F /  -7.8 °C 29.84in /  1010.4hPa Calm   1.0mph /  1.6km/h 63% 0.00in /  0mm
Westford Weather
Compliments of Weather Underground

 
 
Current Radar Loop:

Copyright © WestfordWeather.net 2007-2014. All rights reserved.